createdAt,value
2022-12-11T00:01:42.898Z,9.45
2022-12-11T00:04:10.313Z,8.20
2022-12-11T00:06:38.403Z,10.10
2022-12-11T00:09:05.753Z,8.15
2022-12-11T00:11:33.683Z,8.13
2022-12-11T00:14:01.089Z,11.70
2022-12-11T00:16:28.673Z,11.48
2022-12-11T00:18:56.000Z,9.10
2022-12-11T00:21:23.283Z,8.85
2022-12-11T00:23:50.668Z,9.52
2022-12-11T00:26:18.382Z,10.52
2022-12-11T00:28:45.983Z,9.93
2022-12-11T00:31:17.124Z,10.30
2022-12-11T00:33:46.355Z,9.82
2022-12-11T00:36:16.314Z,9.55
2022-12-11T00:38:44.109Z,9.23
2022-12-11T00:41:12.424Z,9.35
2022-12-11T00:43:39.752Z,8.25
2022-12-11T00:46:07.471Z,9.68
2022-12-11T00:48:34.837Z,7.90
2022-12-11T00:51:02.107Z,9.75
2022-12-11T00:53:29.359Z,7.65
2022-12-11T00:55:57.046Z,7.55
2022-12-11T00:58:24.458Z,9.20
2022-12-11T01:00:53.348Z,9.73
2022-12-11T01:03:20.889Z,7.97
2022-12-11T01:05:53.115Z,8.00
2022-12-11T01:08:20.901Z,8.07
2022-12-11T01:10:48.396Z,7.75
2022-12-11T01:13:15.931Z,9.05
2022-12-11T01:15:46.170Z,8.65
2022-12-11T01:18:15.472Z,9.27
2022-12-11T01:20:43.378Z,7.40
2022-12-11T01:23:13.286Z,11.27
2022-12-11T01:25:41.606Z,9.40
2022-12-11T01:28:09.696Z,8.25
2022-12-11T01:30:37.530Z,8.40
2022-12-11T01:33:05.067Z,8.90
2022-12-11T01:35:34.160Z,7.88
2022-12-11T01:38:01.581Z,8.80
2022-12-11T01:40:29.805Z,8.23
2022-12-11T01:42:57.355Z,8.85
2022-12-11T01:45:32.529Z,8.57
2022-12-11T01:47:59.822Z,8.88
2022-12-11T01:50:28.813Z,8.77
2022-12-11T01:52:56.353Z,10.30
2022-12-11T01:55:24.069Z,8.95
2022-12-11T01:57:53.278Z,7.75
2022-12-11T02:00:21.910Z,7.95
2022-12-11T02:02:49.278Z,8.48
2022-12-11T02:05:16.797Z,7.78
2022-12-11T02:07:48.553Z,7.95
2022-12-11T02:10:16.565Z,8.45
2022-12-11T02:12:47.004Z,7.28
2022-12-11T02:15:35.816Z,9.85
2022-12-11T02:18:11.532Z,8.18
2022-12-11T02:21:10.984Z,8.23
2022-12-11T02:24:06.234Z,7.32
2022-12-11T02:26:52.112Z,7.55
2022-12-11T02:29:26.184Z,7.50
2022-12-11T02:32:11.095Z,9.27
2022-12-11T02:34:58.000Z,8.73
2022-12-11T02:37:29.514Z,8.90
2022-12-11T02:39:57.636Z,7.70
2022-12-11T02:42:29.643Z,7.30
2022-12-11T02:45:01.029Z,8.48
2022-12-11T02:47:32.180Z,7.13
2022-12-11T02:50:02.547Z,7.32
2022-12-11T02:52:33.109Z,8.85
2022-12-11T02:55:02.477Z,7.75
2022-12-11T02:57:51.393Z,7.10
2022-12-11T03:00:19.396Z,6.80
2022-12-11T03:02:46.916Z,6.43
2022-12-11T03:05:15.573Z,7.20
2022-12-11T03:07:44.521Z,9.07
2022-12-11T03:10:15.811Z,7.65
2022-12-11T03:12:53.053Z,8.65
2022-12-11T03:15:24.080Z,7.18
2022-12-11T03:18:09.956Z,7.00
2022-12-11T03:20:46.005Z,7.43
2022-12-11T03:23:21.735Z,7.32
2022-12-11T03:25:56.883Z,6.60
2022-12-11T03:28:46.201Z,7.95
2022-12-11T03:31:26.161Z,6.45
2022-12-11T03:33:57.680Z,10.07
2022-12-11T03:36:30.962Z,8.52
2022-12-11T03:39:02.241Z,7.82
2022-12-11T03:41:32.845Z,11.18
2022-12-11T03:44:00.482Z,6.60
2022-12-11T03:46:36.978Z,9.23
2022-12-11T03:49:10.871Z,7.32
2022-12-11T03:51:39.075Z,7.25
2022-12-11T03:54:07.260Z,6.85
2022-12-11T03:56:38.457Z,7.25
2022-12-11T03:59:05.815Z,7.75
2022-12-11T04:01:33.193Z,7.13
2022-12-11T04:04:00.679Z,6.88
2022-12-11T04:06:28.095Z,6.97
2022-12-11T04:08:55.521Z,6.40
2022-12-11T04:11:35.290Z,7.55
2022-12-11T04:14:27.228Z,7.78
2022-12-11T04:16:55.391Z,8.35
2022-12-11T04:19:42.659Z,6.95
2022-12-11T04:22:32.860Z,7.88
2022-12-11T04:25:01.267Z,7.22
2022-12-11T04:27:47.231Z,7.72
2022-12-11T04:30:17.905Z,7.18
2022-12-11T04:32:45.281Z,6.45
2022-12-11T04:35:13.502Z,6.60
2022-12-11T04:37:41.150Z,6.85
2022-12-11T04:40:12.557Z,7.60
2022-12-11T04:42:40.226Z,7.15
2022-12-11T04:45:09.354Z,6.78
2022-12-11T04:47:38.977Z,8.88
2022-12-11T04:50:08.329Z,7.47
2022-12-11T04:52:35.748Z,7.68
2022-12-11T04:55:05.258Z,8.38
2022-12-11T04:57:32.527Z,7.80
2022-12-11T05:00:00.109Z,7.70
2022-12-11T05:02:27.829Z,6.95
2022-12-11T05:04:55.177Z,7.38
2022-12-11T05:07:22.528Z,7.13
2022-12-11T05:09:50.034Z,7.38
2022-12-11T05:12:17.328Z,6.75
2022-12-11T05:14:44.843Z,7.22
2022-12-11T05:17:12.184Z,6.80
2022-12-11T05:19:39.545Z,8.80
2022-12-11T05:22:06.865Z,7.18
2022-12-11T05:24:34.212Z,7.85
2022-12-11T05:27:01.649Z,7.30
2022-12-11T05:29:29.064Z,8.07
2022-12-11T05:31:56.444Z,6.65
2022-12-11T05:34:23.802Z,7.28
2022-12-11T05:36:51.197Z,6.80
2022-12-11T05:39:18.600Z,7.22
2022-12-11T05:41:45.917Z,8.07
2022-12-11T05:44:13.761Z,6.40
2022-12-11T05:46:41.269Z,7.15
2022-12-11T05:49:11.287Z,6.82
2022-12-11T05:51:39.698Z,6.85
2022-12-11T05:54:07.323Z,7.25
2022-12-11T05:56:35.224Z,6.80
2022-12-11T05:59:04.019Z,7.72
2022-12-11T06:01:40.874Z,6.32
2022-12-11T06:04:10.381Z,8.38
2022-12-11T06:06:38.421Z,6.85
2022-12-11T06:09:06.639Z,7.80
2022-12-11T06:11:34.816Z,8.13
2022-12-11T06:14:03.900Z,9.30
2022-12-11T06:16:32.109Z,7.55
2022-12-11T06:18:59.645Z,7.40
2022-12-11T06:21:30.024Z,7.20
2022-12-11T06:23:59.312Z,7.22
2022-12-11T06:26:27.468Z,8.30
2022-12-11T06:28:54.953Z,6.93
2022-12-11T06:31:22.457Z,8.63
2022-12-11T06:33:49.831Z,7.28
2022-12-11T06:36:19.460Z,7.20
2022-12-11T06:38:47.945Z,7.43
2022-12-11T06:41:15.817Z,7.15
2022-12-11T06:43:43.402Z,8.52
2022-12-11T06:46:13.662Z,8.23
2022-12-11T06:48:42.383Z,7.40
2022-12-11T06:51:12.655Z,7.03
2022-12-11T06:53:40.627Z,6.97
2022-12-11T06:56:11.560Z,7.80
2022-12-11T06:58:39.835Z,6.65
2022-12-11T07:01:28.341Z,7.70
2022-12-11T07:03:58.831Z,8.93
2022-12-11T07:06:28.471Z,7.95
2022-12-11T07:08:56.673Z,8.20
2022-12-11T07:11:24.086Z,7.53
2022-12-11T07:13:51.479Z,7.70
2022-12-11T07:16:19.389Z,8.25
2022-12-11T07:18:49.741Z,7.55
2022-12-11T07:21:17.975Z,7.43
2022-12-11T07:23:45.370Z,7.55
2022-12-11T07:26:15.716Z,8.00
2022-12-11T07:28:43.399Z,8.50
2022-12-11T07:31:13.730Z,9.60
2022-12-11T07:33:41.533Z,7.97
2022-12-11T07:36:11.087Z,6.85
2022-12-11T07:38:38.695Z,8.02
2022-12-11T07:41:08.556Z,7.20
2022-12-11T07:43:36.904Z,8.20
2022-12-11T07:46:07.513Z,10.75
2022-12-11T07:48:36.327Z,8.35
2022-12-11T07:51:09.800Z,8.20
2022-12-11T07:53:37.160Z,9.05
2022-12-11T07:56:05.144Z,6.43
2022-12-11T07:58:32.388Z,8.35
2022-12-11T08:00:59.714Z,7.28
2022-12-11T08:03:27.175Z,7.50
2022-12-11T08:05:54.579Z,8.02
2022-12-11T08:08:21.919Z,7.25
2022-12-11T08:10:49.341Z,6.03
2022-12-11T08:13:16.641Z,8.20
2022-12-11T08:15:43.901Z,10.77
2022-12-11T08:18:11.169Z,9.07
2022-12-11T08:20:39.341Z,7.32
2022-12-11T08:23:06.694Z,7.95
2022-12-11T08:25:34.177Z,7.97
2022-12-11T08:28:01.470Z,9.07
2022-12-11T08:30:28.835Z,7.30
2022-12-11T08:32:56.164Z,6.25
2022-12-11T08:35:23.677Z,6.38
2022-12-11T08:37:50.974Z,9.85
2022-12-11T08:40:18.393Z,10.88
2022-12-11T08:42:45.711Z,9.38
2022-12-11T08:45:13.324Z,9.40
2022-12-11T08:47:41.327Z,9.80
2022-12-11T08:50:09.398Z,13.25
2022-12-11T08:52:36.815Z,9.45
2022-12-11T08:55:04.576Z,10.38
2022-12-11T08:57:31.900Z,9.45
2022-12-11T08:59:59.211Z,12.25
2022-12-11T09:02:26.740Z,8.90
2022-12-11T09:04:54.046Z,8.80
2022-12-11T09:07:21.380Z,8.43
2022-12-11T09:09:48.818Z,9.45
2022-12-11T09:12:16.175Z,10.38
2022-12-11T09:14:43.607Z,7.78
2022-12-11T09:17:10.997Z,7.10
2022-12-11T09:19:38.279Z,7.32
2022-12-11T09:22:05.540Z,8.52
2022-12-11T09:24:32.885Z,6.43
2022-12-11T09:27:00.192Z,8.25
2022-12-11T09:29:27.457Z,7.30
2022-12-11T09:31:54.868Z,8.70
2022-12-11T09:34:28.691Z,6.82
2022-12-11T09:36:56.870Z,7.30
2022-12-11T09:39:24.328Z,8.43
2022-12-11T09:42:06.661Z,9.43
2022-12-11T09:44:42.168Z,8.02
2022-12-11T09:47:33.284Z,10.45
2022-12-11T09:50:09.687Z,11.43
2022-12-11T09:52:49.004Z,7.97
2022-12-11T09:55:25.448Z,9.18
2022-12-11T09:58:05.263Z,8.88
2022-12-11T10:00:38.887Z,12.32
2022-12-11T10:03:18.296Z,11.73
2022-12-11T10:05:52.704Z,9.75
2022-12-11T10:08:53.688Z,9.32
2022-12-11T10:11:56.341Z,12.52
2022-12-11T10:15:15.019Z,9.93
2022-12-11T10:17:44.788Z,11.73
2022-12-11T10:20:18.101Z,9.95
2022-12-11T10:22:46.037Z,12.32
2022-12-11T10:25:25.890Z,11.90
2022-12-11T10:27:54.750Z,11.82
2022-12-11T10:30:37.980Z,10.65
2022-12-11T10:33:31.586Z,12.23
2022-12-11T10:38:36.965Z,12.52
2022-12-11T10:41:10.315Z,9.13
2022-12-11T10:43:46.596Z,10.10
2022-12-11T10:46:25.428Z,10.73
2022-12-11T10:48:55.711Z,10.10
2022-12-11T10:51:26.725Z,10.43
2022-12-11T10:54:02.670Z,9.63
2022-12-11T10:56:35.636Z,12.23
2022-12-11T10:59:03.926Z,9.45
2022-12-11T11:01:32.618Z,10.20
2022-12-11T11:04:06.678Z,9.80
2022-12-11T11:06:34.137Z,9.05
2022-12-11T11:09:03.831Z,10.23
2022-12-11T11:11:33.944Z,9.88
2022-12-11T11:14:22.829Z,7.38
2022-12-11T11:16:55.039Z,8.05
2022-12-11T11:19:24.733Z,8.70
2022-12-11T11:21:59.188Z,8.68
2022-12-11T11:24:38.892Z,7.90
2022-12-11T11:27:28.123Z,8.85
2022-12-11T11:29:58.311Z,9.20
2022-12-11T11:32:38.816Z,8.90
2022-12-11T11:35:17.484Z,7.50
2022-12-11T11:37:47.406Z,8.38
2022-12-11T11:40:28.927Z,9.75
2022-12-11T11:43:16.548Z,7.88
2022-12-11T11:45:49.702Z,8.20
2022-12-11T11:51:13.246Z,6.72
2022-12-11T11:53:41.706Z,7.70
2022-12-11T11:56:15.051Z,8.38
2022-12-11T11:58:51.280Z,6.93
2022-12-11T12:01:20.856Z,7.47
2022-12-11T12:03:49.364Z,7.13
2022-12-11T12:06:31.777Z,6.90
2022-12-11T12:09:48.329Z,7.22
2022-12-11T12:12:24.876Z,7.55
2022-12-11T12:15:20.380Z,6.78
2022-12-11T12:17:56.549Z,7.45
2022-12-11T12:20:42.631Z,6.25
2022-12-11T12:23:37.333Z,7.10
2022-12-11T12:26:23.335Z,6.78
2022-12-11T12:29:29.755Z,7.32
2022-12-11T12:32:13.233Z,7.50
2022-12-11T12:38:00.767Z,6.70
2022-12-11T12:41:02.393Z,8.00
2022-12-11T12:43:48.448Z,6.22
2022-12-11T12:46:34.655Z,7.15
2022-12-11T12:49:03.205Z,6.38
2022-12-11T12:51:30.985Z,7.25
2022-12-11T12:54:01.591Z,6.80
2022-12-11T12:56:32.523Z,5.55
2022-12-11T12:58:59.748Z,7.45
2022-12-11T13:01:30.150Z,7.47
2022-12-11T13:04:20.789Z,6.85
2022-12-11T13:06:56.434Z,7.22
2022-12-11T13:09:28.380Z,6.25
2022-12-11T13:11:59.770Z,7.10
2022-12-11T13:14:33.337Z,6.32
2022-12-11T13:17:25.443Z,6.82
2022-12-11T13:20:12.153Z,5.63
2022-12-11T13:22:50.959Z,5.75
2022-12-11T13:25:28.759Z,6.70
2022-12-11T13:28:07.521Z,5.97
2022-12-11T13:30:35.224Z,6.13
2022-12-11T13:33:06.607Z,5.93
2022-12-11T13:35:35.492Z,5.38
2022-12-11T13:38:29.617Z,6.38
2022-12-11T13:40:59.122Z,5.45
2022-12-11T13:43:30.054Z,5.05
2022-12-11T13:46:10.871Z,5.18
2022-12-11T13:48:41.165Z,5.57
2022-12-11T13:51:08.500Z,6.85
2022-12-11T13:53:35.840Z,5.38
2022-12-11T13:56:06.776Z,6.35
2022-12-11T13:58:37.143Z,5.68
2022-12-11T14:01:15.529Z,5.45
2022-12-11T14:04:04.881Z,5.68
2022-12-11T14:06:34.711Z,6.00
2022-12-11T14:09:03.570Z,6.65
2022-12-11T14:11:37.991Z,5.55
2022-12-11T14:14:16.265Z,4.53
2022-12-11T14:16:43.793Z,5.32
2022-12-11T14:19:17.994Z,5.18
2022-12-11T14:21:56.425Z,4.78
2022-12-11T14:24:24.336Z,5.35
2022-12-11T14:26:53.902Z,5.95
2022-12-11T14:29:31.809Z,4.72
2022-12-11T14:32:05.826Z,5.13
2022-12-11T14:34:43.517Z,4.47
2022-12-11T14:37:15.830Z,4.70
2022-12-11T14:40:07.230Z,4.47
2022-12-11T14:42:41.351Z,4.85
2022-12-11T14:45:36.260Z,4.63
2022-12-11T14:48:10.085Z,4.05
2022-12-11T14:50:43.768Z,4.80
2022-12-11T14:53:19.453Z,4.05
2022-12-11T14:55:50.294Z,4.05
2022-12-11T14:58:22.462Z,4.53
2022-12-11T15:01:01.426Z,3.70
2022-12-11T15:03:40.630Z,3.78
2022-12-11T15:06:26.248Z,3.55
2022-12-11T15:08:53.677Z,3.92
2022-12-11T15:11:22.157Z,4.43
2022-12-11T15:13:59.308Z,4.25
2022-12-11T15:16:31.356Z,3.60
2022-12-11T15:18:59.438Z,3.30
2022-12-11T15:21:33.893Z,3.00
2022-12-11T15:24:04.201Z,3.10
2022-12-11T15:26:40.455Z,3.85
2022-12-11T15:29:31.016Z,3.42
2022-12-11T15:32:19.941Z,4.07
2022-12-11T15:34:56.847Z,3.70
2022-12-11T15:37:29.679Z,3.50
2022-12-11T15:39:59.173Z,2.70
2022-12-11T15:42:32.967Z,3.00
2022-12-11T15:45:00.878Z,4.22
2022-12-11T15:47:30.963Z,3.58
2022-12-11T15:50:07.740Z,3.40
2022-12-11T15:52:34.979Z,3.53
2022-12-11T15:55:02.531Z,2.85
2022-12-11T15:57:30.475Z,3.55
2022-12-11T15:59:58.750Z,2.63
2022-12-11T16:02:28.036Z,2.65
2022-12-11T16:04:56.316Z,2.85
2022-12-11T16:07:25.846Z,3.08
2022-12-11T16:09:53.349Z,3.13
2022-12-11T16:12:20.797Z,3.17
2022-12-11T16:14:48.138Z,3.10
2022-12-11T16:17:15.847Z,2.95
2022-12-11T16:19:44.320Z,3.28
2022-12-11T16:22:13.340Z,3.22
2022-12-11T16:24:41.384Z,3.72
2022-12-11T16:27:09.925Z,2.78
2022-12-11T16:29:39.031Z,2.83
2022-12-11T16:32:08.408Z,3.63
2022-12-11T16:34:37.615Z,2.67
2022-12-11T16:37:06.941Z,2.90
2022-12-11T16:39:35.200Z,3.45
2022-12-11T16:42:03.667Z,3.42
2022-12-11T16:44:31.028Z,3.10
2022-12-11T16:46:59.231Z,3.38
2022-12-11T16:49:26.526Z,4.15
2022-12-11T16:51:53.853Z,3.35
2022-12-11T16:58:48.399Z,2.80
2022-12-11T17:01:16.222Z,3.85
2022-12-11T17:03:44.650Z,3.25
2022-12-11T17:06:15.582Z,3.75
2022-12-11T17:08:43.736Z,4.03
2022-12-11T17:11:14.964Z,4.05
2022-12-11T17:13:42.843Z,4.47
2022-12-11T17:16:16.332Z,3.75
2022-12-11T17:18:43.787Z,4.93
2022-12-11T17:21:17.133Z,3.88
2022-12-11T17:23:45.202Z,3.70
2022-12-11T17:26:12.622Z,3.80
2022-12-11T17:28:40.191Z,4.80
2022-12-11T17:31:09.695Z,5.82
2022-12-11T17:33:38.746Z,4.03
2022-12-11T17:36:07.926Z,4.78
2022-12-11T17:38:36.034Z,5.63
2022-12-11T17:41:07.830Z,4.22
2022-12-11T17:43:35.132Z,3.30
2022-12-11T17:46:02.505Z,8.93
2022-12-11T17:48:29.934Z,8.02
2022-12-11T17:50:57.573Z,6.75
2022-12-11T17:53:26.470Z,4.82
2022-12-11T17:55:53.939Z,6.45
2022-12-11T17:58:23.053Z,2.80
2022-12-11T18:00:54.258Z,4.00
2022-12-11T18:03:22.092Z,4.25
2022-12-11T18:05:53.303Z,2.83
2022-12-11T18:08:26.587Z,3.65
2022-12-11T18:10:54.525Z,4.22
2022-12-11T18:13:24.419Z,4.20
2022-12-11T18:16:03.901Z,4.68
2022-12-11T18:18:31.286Z,3.40
2022-12-11T18:20:59.120Z,4.05
2022-12-11T18:23:27.080Z,5.90
2022-12-11T18:25:54.834Z,5.05
2022-12-11T18:28:22.286Z,5.22
2022-12-11T18:30:49.803Z,4.28
2022-12-11T18:33:17.115Z,4.38
2022-12-11T18:35:44.482Z,5.70
2022-12-11T18:38:12.309Z,3.10
2022-12-11T18:40:39.688Z,3.63
2022-12-11T18:43:07.037Z,3.00
2022-12-11T18:45:34.673Z,2.97
2022-12-11T18:48:01.971Z,5.47
2022-12-11T18:50:29.677Z,3.15
2022-12-11T18:52:58.173Z,2.80
2022-12-11T18:55:25.622Z,4.00
2022-12-11T18:57:53.356Z,3.40
2022-12-11T19:00:24.185Z,4.35
2022-12-11T19:02:52.590Z,3.20
2022-12-11T19:05:20.200Z,4.53
2022-12-11T19:07:47.633Z,3.22
2022-12-11T19:10:15.114Z,5.57
2022-12-11T19:12:43.071Z,3.60
2022-12-11T19:15:11.508Z,3.97
2022-12-11T19:17:39.090Z,3.10
2022-12-11T19:20:32.289Z,4.20
2022-12-11T19:22:54.611Z,3.80
2022-12-11T19:25:21.851Z,5.35
2022-12-11T19:27:50.318Z,4.13
2022-12-11T19:30:17.622Z,3.10
2022-12-11T19:32:46.447Z,3.47
2022-12-11T19:35:15.104Z,3.72
2022-12-11T19:37:43.358Z,3.70
2022-12-11T19:40:10.868Z,5.55
2022-12-11T19:42:38.465Z,3.47
2022-12-11T19:45:06.309Z,2.80
2022-12-11T19:47:34.693Z,3.25
2022-12-11T19:50:02.249Z,3.65
2022-12-11T19:52:29.528Z,3.42
2022-12-11T19:55:01.726Z,3.88
2022-12-11T19:57:34.142Z,3.30
2022-12-11T20:00:02.011Z,3.10
2022-12-11T20:02:29.389Z,3.17
2022-12-11T20:04:56.825Z,4.15
2022-12-11T20:07:30.337Z,3.17
2022-12-11T20:10:00.144Z,8.25
2022-12-11T20:12:30.717Z,3.83
2022-12-11T20:14:58.172Z,3.30
2022-12-11T20:17:25.486Z,3.67
2022-12-11T20:19:52.781Z,3.70
2022-12-11T20:22:20.121Z,5.05
2022-12-11T20:24:47.451Z,3.88
2022-12-11T20:27:15.255Z,4.25
2022-12-11T20:29:42.684Z,3.60
2022-12-11T20:32:11.475Z,4.15
2022-12-11T20:34:39.523Z,4.55
2022-12-11T20:37:07.789Z,6.40
2022-12-11T20:39:35.752Z,3.92
2022-12-11T20:42:04.983Z,4.88
2022-12-11T20:44:32.575Z,3.75
2022-12-11T20:47:00.140Z,4.38
2022-12-11T20:49:27.513Z,5.75
2022-12-11T20:51:56.087Z,8.50
2022-12-11T20:54:23.326Z,2.83
2022-12-11T20:56:50.600Z,7.30
2022-12-11T20:59:18.660Z,3.60
2022-12-11T21:01:46.164Z,6.55
2022-12-11T21:04:13.525Z,3.83
2022-12-11T21:06:42.056Z,4.15
2022-12-11T21:09:13.887Z,5.97
2022-12-11T21:11:41.547Z,4.05
2022-12-11T21:14:08.906Z,4.20
2022-12-11T21:16:37.328Z,3.47
2022-12-11T21:19:05.626Z,4.32
2022-12-11T21:21:36.865Z,3.55
2022-12-11T21:24:04.593Z,4.72
2022-12-11T21:26:31.926Z,3.15
2022-12-11T21:28:59.425Z,3.72
2022-12-11T21:31:27.574Z,4.55
2022-12-11T21:33:54.989Z,3.83
2022-12-11T21:36:22.279Z,4.43
2022-12-11T21:38:50.689Z,5.22
2022-12-11T21:41:21.010Z,4.55
2022-12-11T21:46:38.818Z,5.05
2022-12-11T21:49:08.343Z,6.15
2022-12-11T21:51:42.543Z,3.35
2022-12-11T21:54:17.537Z,4.78
2022-12-11T21:56:46.502Z,3.47
2022-12-11T21:59:14.140Z,4.88
2022-12-11T22:01:46.109Z,5.10
2022-12-11T22:04:15.171Z,5.00
2022-12-11T22:06:43.585Z,3.65
2022-12-11T22:09:12.544Z,5.57
2022-12-11T22:11:41.443Z,4.53
2022-12-11T22:14:13.408Z,4.70
2022-12-11T22:16:41.055Z,6.28
2022-12-11T22:19:08.810Z,4.05
2022-12-11T22:21:37.657Z,4.35
2022-12-11T22:24:05.158Z,4.63
2022-12-11T22:26:32.677Z,3.67
2022-12-11T22:29:00.055Z,4.80
2022-12-11T22:31:28.137Z,4.10
2022-12-11T22:33:56.148Z,3.92
2022-12-11T22:36:25.335Z,3.97
2022-12-11T22:38:53.057Z,5.10
2022-12-11T22:41:26.519Z,4.63
2022-12-11T22:43:54.783Z,5.40
2022-12-11T22:46:24.774Z,17.23
2022-12-11T22:48:52.938Z,5.72
2022-12-11T22:51:20.908Z,5.65
2022-12-11T22:53:48.208Z,4.95
2022-12-11T22:56:15.630Z,8.13
2022-12-11T22:58:43.046Z,8.20
2022-12-11T23:01:12.922Z,5.75
2022-12-11T23:03:40.487Z,5.82
2022-12-11T23:06:11.289Z,6.60
2022-12-11T23:08:40.228Z,6.18
2022-12-11T23:11:17.108Z,6.03
2022-12-11T23:13:44.673Z,6.40
2022-12-11T23:16:12.555Z,4.90
2022-12-11T23:18:39.935Z,6.65
2022-12-11T23:21:08.900Z,6.05
2022-12-11T23:23:36.471Z,5.43
2022-12-11T23:26:05.699Z,6.55
2022-12-11T23:28:33.326Z,5.38
2022-12-11T23:31:00.722Z,5.75
2022-12-11T23:33:28.634Z,4.88
2022-12-11T23:35:56.016Z,5.55
2022-12-11T23:38:23.611Z,6.85
2022-12-11T23:40:51.791Z,5.82
2022-12-11T23:43:19.229Z,5.78
2022-12-11T23:45:47.089Z,6.53
2022-12-11T23:48:14.646Z,5.07
2022-12-11T23:50:43.400Z,6.93
2022-12-11T23:53:11.603Z,5.68
2022-12-11T23:55:41.185Z,8.25
2022-12-11T23:58:09.120Z,6.70
